createdAt,value
2023-06-02T00:00:49.042Z,101416.14
2023-06-02T00:03:38.501Z,101416.06
2023-06-02T00:06:07.208Z,101416.50
2023-06-02T00:08:40.221Z,101417.29
2023-06-02T00:11:10.143Z,101419.95
2023-06-02T00:13:39.570Z,101415.08
2023-06-02T00:16:08.261Z,101409.31
2023-06-02T00:18:41.130Z,101404.36
2023-06-02T00:21:09.408Z,101398.64
2023-06-02T00:23:37.516Z,101398.67
2023-06-02T00:26:05.841Z,101400.30
2023-06-02T00:28:34.254Z,101402.46
2023-06-02T00:31:02.430Z,101399.77
2023-06-02T00:33:30.578Z,101397.48
2023-06-02T00:35:58.992Z,101399.42
2023-06-02T00:38:28.277Z,101399.66
2023-06-02T00:40:57.091Z,101401.73
2023-06-02T00:43:25.389Z,101403.05
2023-06-02T00:45:56.868Z,101403.30
2023-06-02T00:48:25.430Z,101399.61
2023-06-02T00:50:53.794Z,101396.39
2023-06-02T00:53:22.064Z,101395.30
2023-06-02T00:55:53.389Z,101395.45
2023-06-02T00:58:22.468Z,101393.70
2023-06-02T01:00:51.093Z,101397.01
2023-06-02T01:03:22.549Z,101399.54
2023-06-02T01:05:56.933Z,101396.67
2023-06-02T01:08:26.163Z,101390.42
2023-06-02T01:10:55.497Z,101392.73
2023-06-02T01:13:24.778Z,101393.64
2023-06-02T01:15:52.878Z,101392.45
2023-06-02T01:18:26.513Z,101398.66
2023-06-02T01:20:58.731Z,101397.13
2023-06-02T01:23:38.060Z,101396.31
2023-06-02T01:26:06.618Z,101393.77
2023-06-02T01:28:34.905Z,101392.38
2023-06-02T01:31:27.334Z,101389.38
2023-06-02T01:34:18.620Z,101385.70
2023-06-02T01:36:50.409Z,101382.88
2023-06-02T01:39:19.822Z,101380.77
2023-06-02T01:41:50.835Z,101381.25
2023-06-02T01:44:20.871Z,101379.65
2023-06-02T01:46:50.032Z,101374.87
2023-06-02T01:49:19.002Z,101376.15
2023-06-02T01:51:47.700Z,101382.71
2023-06-02T01:54:16.700Z,101384.92
2023-06-02T01:56:44.877Z,101381.94
2023-06-02T01:59:14.175Z,101376.17
2023-06-02T02:01:43.617Z,101381.23
2023-06-02T02:04:12.380Z,101383.16
2023-06-02T02:06:41.087Z,101385.73
2023-06-02T02:09:09.164Z,101386.90
2023-06-02T02:11:37.465Z,101386.55
2023-06-02T02:14:06.124Z,101385.06
2023-06-02T02:16:34.897Z,101387.05
2023-06-02T02:19:03.556Z,101384.98
2023-06-02T02:21:31.728Z,101385.44
2023-06-02T02:23:59.846Z,101387.45
2023-06-02T02:26:29.200Z,101389.43
2023-06-02T02:28:57.348Z,101388.09
2023-06-02T02:31:25.759Z,101390.00
2023-06-02T02:33:53.946Z,101390.50
2023-06-02T02:36:23.298Z,101392.19
2023-06-02T02:38:51.477Z,101392.30
2023-06-02T02:41:21.213Z,101401.47
2023-06-02T02:43:49.491Z,101396.56
2023-06-02T02:46:21.316Z,101396.27
2023-06-02T02:48:50.203Z,101399.23
2023-06-02T02:51:18.512Z,101402.73
2023-06-02T02:53:46.820Z,101404.27
2023-06-02T02:56:16.317Z,101406.49
2023-06-02T02:58:45.875Z,101407.52
2023-06-02T03:01:17.108Z,101403.07
2023-06-02T03:03:45.975Z,101403.05
2023-06-02T03:06:19.290Z,101403.36
2023-06-02T03:08:48.203Z,101407.74
2023-06-02T03:11:16.394Z,101409.70
2023-06-02T03:13:44.483Z,101403.73
2023-06-02T03:16:14.017Z,101400.69
2023-06-02T03:18:42.173Z,101397.40
2023-06-02T03:21:11.227Z,101392.36
2023-06-02T03:23:41.927Z,101388.45
2023-06-02T03:26:13.063Z,101387.83
2023-06-02T03:28:44.008Z,101385.10
2023-06-02T03:31:12.772Z,101381.82
2023-06-02T03:33:41.061Z,101378.70
2023-06-02T03:36:10.936Z,101379.10
2023-06-02T03:38:40.646Z,101375.50
2023-06-02T03:41:08.719Z,101378.86
2023-06-02T03:43:36.965Z,101377.42
2023-06-02T03:46:05.339Z,101376.48
2023-06-02T03:48:34.224Z,101375.83
2023-06-02T03:51:04.399Z,101376.71
2023-06-02T03:53:32.616Z,101378.95
2023-06-02T03:56:01.031Z,101379.21
2023-06-02T03:58:29.395Z,101381.01
2023-06-02T04:00:59.452Z,101382.76
2023-06-02T04:03:27.603Z,101380.89
2023-06-02T04:05:56.250Z,101383.80
2023-06-02T04:08:25.727Z,101378.63
2023-06-02T04:10:54.135Z,101377.02
2023-06-02T04:13:22.776Z,101374.81
2023-06-02T04:15:50.922Z,101376.92
2023-06-02T04:18:19.150Z,101376.38
2023-06-02T04:20:48.505Z,101374.95
2023-06-02T04:23:16.672Z,101377.93
2023-06-02T04:25:45.060Z,101380.16
2023-06-02T04:28:14.366Z,101373.15
2023-06-02T04:30:42.654Z,101374.39
2023-06-02T04:33:11.117Z,101372.74
2023-06-02T04:35:39.252Z,101368.67
2023-06-02T04:38:09.094Z,101367.98
2023-06-02T04:40:40.566Z,101369.79
2023-06-02T04:43:10.196Z,101368.00
2023-06-02T04:45:44.782Z,101371.40
2023-06-02T04:48:14.708Z,101379.06
2023-06-02T04:50:43.063Z,101380.66
2023-06-02T04:53:12.645Z,101379.48
2023-06-02T04:55:40.609Z,101381.23
2023-06-02T04:58:09.670Z,101378.79
2023-06-02T05:00:38.793Z,101372.48
2023-06-02T05:03:08.644Z,101368.50
2023-06-02T05:05:37.189Z,101368.86
2023-06-02T05:08:07.363Z,101367.21
2023-06-02T05:10:35.514Z,101368.34
2023-06-02T05:13:04.836Z,101364.77
2023-06-02T05:15:33.656Z,101365.65
2023-06-02T05:18:02.205Z,101366.76
2023-06-02T05:20:30.654Z,101365.84
2023-06-02T05:22:58.777Z,101368.66
2023-06-02T05:25:26.905Z,101366.69
2023-06-02T05:27:55.370Z,101368.48
2023-06-02T05:30:24.036Z,101370.54
2023-06-02T05:32:52.346Z,101371.39
2023-06-02T05:35:21.322Z,101371.20
2023-06-02T05:37:49.514Z,101372.44
2023-06-02T05:40:19.069Z,101371.17
2023-06-02T05:42:48.546Z,101367.68
2023-06-02T05:45:17.988Z,101368.69
2023-06-02T05:47:49.855Z,101367.52
2023-06-02T05:50:18.949Z,101362.89
2023-06-02T05:52:47.190Z,101361.71
2023-06-02T05:55:15.504Z,101362.73
2023-06-02T05:57:44.146Z,101364.50
2023-06-02T06:00:13.786Z,101361.91
2023-06-02T06:02:42.286Z,101360.06
2023-06-02T06:05:12.560Z,101357.25
2023-06-02T06:07:41.097Z,101359.18
2023-06-02T06:10:09.732Z,101359.97
2023-06-02T06:12:38.179Z,101358.14
2023-06-02T06:15:06.862Z,101357.67
2023-06-02T06:17:35.126Z,101352.77
2023-06-02T06:20:03.570Z,101347.34
2023-06-02T06:22:32.752Z,101349.23
2023-06-02T06:25:00.966Z,101350.29
2023-06-02T06:27:29.971Z,101345.20
2023-06-02T06:29:58.752Z,101342.09
2023-06-02T06:32:27.334Z,101332.92
2023-06-02T06:34:55.644Z,101327.85
2023-06-02T06:37:24.146Z,101330.48
2023-06-02T06:39:52.271Z,101332.16
2023-06-02T06:42:20.434Z,101332.88
2023-06-02T06:44:58.427Z,101332.02
2023-06-02T06:47:26.875Z,101332.75
2023-06-02T06:49:56.224Z,101330.53
2023-06-02T06:52:24.381Z,101332.48
2023-06-02T06:54:52.489Z,101326.35
2023-06-02T06:57:21.464Z,101326.88
2023-06-02T06:59:49.693Z,101330.27
2023-06-02T07:02:17.790Z,101330.21
2023-06-02T07:04:46.868Z,101329.04
2023-06-02T07:07:15.532Z,101331.50
2023-06-02T07:09:43.912Z,101332.55
2023-06-02T07:12:12.016Z,101330.40
2023-06-02T07:14:40.127Z,101333.80
2023-06-02T07:17:09.341Z,101336.29
2023-06-02T07:19:37.471Z,101342.95
2023-06-02T07:22:06.189Z,101344.26
2023-06-02T07:24:34.641Z,101344.98
2023-06-02T07:27:04.628Z,101343.52
2023-06-02T07:29:32.863Z,101343.46
2023-06-02T07:32:01.050Z,101345.25
2023-06-02T07:34:29.256Z,101344.32
2023-06-02T07:36:57.730Z,101343.46
2023-06-02T07:39:26.012Z,101349.91
2023-06-02T07:41:54.153Z,101353.41
2023-06-02T07:44:22.310Z,101353.84
2023-06-02T07:46:50.753Z,101366.06
2023-06-02T07:49:18.910Z,101368.57
2023-06-02T07:51:47.220Z,101370.39
2023-06-02T07:54:15.822Z,101371.64
2023-06-02T07:56:44.019Z,101372.20
2023-06-02T07:59:13.530Z,101374.59
2023-06-02T08:01:42.020Z,101374.02
2023-06-02T08:04:10.389Z,101369.52
2023-06-02T08:06:39.061Z,101365.33
2023-06-02T08:09:07.665Z,101368.92
2023-06-02T08:11:36.605Z,101369.38
2023-06-02T08:14:05.034Z,101361.41
2023-06-02T08:16:41.597Z,101364.63
2023-06-02T08:19:22.174Z,101367.59
2023-06-02T08:21:50.430Z,101361.95
2023-06-02T08:24:22.132Z,101356.92
2023-06-02T08:26:52.274Z,101355.15
2023-06-02T08:29:21.621Z,101354.16
2023-06-02T08:31:49.850Z,101350.95
2023-06-02T08:34:22.001Z,101348.89
2023-06-02T08:36:58.814Z,101356.54
2023-06-02T08:39:31.111Z,101357.35
2023-06-02T08:42:03.232Z,101358.68
2023-06-02T08:44:31.725Z,101361.80
2023-06-02T08:47:02.482Z,101355.15
2023-06-02T08:49:34.473Z,101356.75
2023-06-02T08:52:09.604Z,101356.64
2023-06-02T08:54:39.734Z,101357.90
2023-06-02T08:57:09.184Z,101354.38
2023-06-02T08:59:37.800Z,101345.23
2023-06-02T09:02:06.212Z,101346.44
2023-06-02T09:04:34.707Z,101344.73
2023-06-02T09:07:14.844Z,101341.09
2023-06-02T09:09:48.271Z,101337.27
2023-06-02T09:12:18.167Z,101341.39
2023-06-02T09:15:11.143Z,101342.41
2023-06-02T09:17:40.159Z,101345.05
2023-06-02T09:20:12.575Z,101343.14
2023-06-02T09:22:58.545Z,101339.45
2023-06-02T09:25:31.116Z,101330.02
2023-06-02T09:28:00.924Z,101333.96
2023-06-02T09:30:30.214Z,101328.16
2023-06-02T09:33:13.779Z,101326.66
2023-06-02T09:35:44.146Z,101322.98
2023-06-02T09:38:18.667Z,101327.13
2023-06-02T09:40:46.783Z,101323.12
2023-06-02T09:43:17.340Z,101312.79
2023-06-02T09:45:55.669Z,101309.17
2023-06-02T09:48:24.632Z,101306.12
2023-06-02T09:50:52.999Z,101315.34
2023-06-02T09:53:23.769Z,101313.78
2023-06-02T09:55:52.232Z,101311.57
2023-06-02T09:58:20.723Z,101315.63
2023-06-02T10:00:49.011Z,101312.67
2023-06-02T10:03:17.469Z,101310.45
2023-06-02T10:06:04.751Z,101305.23
2023-06-02T10:09:12.258Z,101305.96
2023-06-02T10:12:24.937Z,101302.69
2023-06-02T10:15:28.453Z,101300.65
2023-06-02T10:18:00.228Z,101302.45
2023-06-02T10:20:36.879Z,101307.02
2023-06-02T10:23:40.528Z,101307.46
2023-06-02T10:26:08.660Z,101302.62
2023-06-02T10:28:37.732Z,101303.37
2023-06-02T10:31:11.022Z,101297.55
2023-06-02T10:33:47.706Z,101299.67
2023-06-02T10:36:19.285Z,101296.99
2023-06-02T10:38:47.894Z,101290.66
2023-06-02T10:41:18.110Z,101288.80
2023-06-02T10:44:20.107Z,101296.17
2023-06-02T10:46:48.474Z,101296.27
2023-06-02T10:49:55.009Z,101289.27
2023-06-02T10:52:23.690Z,101288.97
2023-06-02T10:55:13.785Z,101292.14
2023-06-02T10:58:00.201Z,101292.80
2023-06-02T11:00:37.892Z,101284.71
2023-06-02T11:03:28.999Z,101291.17
2023-06-02T11:06:31.120Z,101290.66
2023-06-02T11:09:43.916Z,101289.68
2023-06-02T11:12:13.033Z,101279.26
2023-06-02T11:15:03.847Z,101279.41
2023-06-02T11:17:33.980Z,101282.27
2023-06-02T11:20:07.080Z,101277.30
2023-06-02T11:22:37.813Z,101276.82
2023-06-02T11:25:06.960Z,101272.94
2023-06-02T11:27:47.066Z,101273.36
2023-06-02T11:30:20.186Z,101275.92
2023-06-02T11:32:53.455Z,101276.22
2023-06-02T11:35:27.276Z,101273.79
2023-06-02T11:38:21.808Z,101269.50
2023-06-02T11:40:49.897Z,101271.18
2023-06-02T11:43:22.433Z,101265.67
2023-06-02T11:45:50.605Z,101257.45
2023-06-02T11:48:23.921Z,101253.39
2023-06-02T11:50:55.579Z,101262.27
2023-06-02T11:53:24.549Z,101258.86
2023-06-02T11:55:53.672Z,101257.88
2023-06-02T11:58:24.480Z,101254.77
2023-06-02T12:00:53.664Z,101254.05
2023-06-02T12:03:26.507Z,101247.77
2023-06-02T12:05:57.244Z,101256.77
2023-06-02T12:08:27.292Z,101254.30
2023-06-02T12:10:59.027Z,101246.06
2023-06-02T12:13:33.040Z,101247.40
2023-06-02T12:16:25.965Z,101248.00
2023-06-02T12:18:57.484Z,101238.38
2023-06-02T12:21:29.612Z,101238.77
2023-06-02T12:24:00.233Z,101245.80
2023-06-02T12:26:28.580Z,101238.09
2023-06-02T12:28:58.591Z,101242.84
2023-06-02T12:31:26.937Z,101231.42
2023-06-02T12:33:55.252Z,101222.95
2023-06-02T12:36:23.528Z,101224.87
2023-06-02T12:38:51.652Z,101230.70
2023-06-02T12:41:19.874Z,101230.82
2023-06-02T12:43:48.743Z,101235.48
2023-06-02T12:46:18.344Z,101235.81
2023-06-02T12:48:48.860Z,101235.42
2023-06-02T12:51:17.295Z,101231.11
2023-06-02T12:53:46.475Z,101227.10
2023-06-02T12:56:15.545Z,101224.33
2023-06-02T12:58:44.095Z,101221.37
2023-06-02T13:01:12.199Z,101219.77
2023-06-02T13:03:41.125Z,101214.13
2023-06-02T13:06:11.339Z,101206.48
2023-06-02T13:08:40.142Z,101220.42
2023-06-02T13:11:08.872Z,101217.39
2023-06-02T13:13:37.703Z,101225.13
2023-06-02T13:16:06.423Z,101225.38
2023-06-02T13:18:35.032Z,101226.89
2023-06-02T13:21:03.350Z,101222.48
2023-06-02T13:23:31.796Z,101222.75
2023-06-02T13:26:00.107Z,101227.17
2023-06-02T13:28:30.002Z,101220.91
2023-06-02T13:31:02.520Z,101212.95
2023-06-02T13:33:31.924Z,101222.31
2023-06-02T13:36:00.083Z,101213.93
2023-06-02T13:38:28.217Z,101212.89
2023-06-02T13:40:59.273Z,101212.55
2023-06-02T13:43:27.978Z,101213.60
2023-06-02T13:45:56.200Z,101209.49
2023-06-02T13:48:24.663Z,101208.59
2023-06-02T13:50:52.848Z,101208.91
2023-06-02T13:53:21.061Z,101207.66
2023-06-02T13:55:49.270Z,101203.95
2023-06-02T13:58:17.364Z,101200.73
2023-06-02T14:00:46.842Z,101200.20
2023-06-02T14:03:15.292Z,101194.96
2023-06-02T14:05:47.262Z,101192.30
2023-06-02T14:08:17.774Z,101199.20
2023-06-02T14:10:46.235Z,101194.46
2023-06-02T14:13:14.780Z,101195.41
2023-06-02T14:15:43.098Z,101189.96
2023-06-02T14:18:11.479Z,101190.69
2023-06-02T14:20:40.296Z,101188.73
2023-06-02T14:23:08.411Z,101185.92
2023-06-02T14:25:36.760Z,101188.33
2023-06-02T14:28:05.088Z,101192.86
2023-06-02T14:30:33.964Z,101195.15
2023-06-02T14:33:02.076Z,101194.52
2023-06-02T14:35:30.469Z,101193.44
2023-06-02T14:37:58.848Z,101190.64
2023-06-02T14:40:28.212Z,101191.30
2023-06-02T14:42:56.385Z,101187.32
2023-06-02T14:45:24.442Z,101185.48
2023-06-02T14:47:52.878Z,101186.27
2023-06-02T14:50:21.113Z,101182.45
2023-06-02T14:52:49.262Z,101181.90
2023-06-02T14:55:18.185Z,101183.34
2023-06-02T14:57:46.506Z,101182.95
2023-06-02T15:00:14.981Z,101189.56
2023-06-02T15:02:43.244Z,101189.02
2023-06-02T15:05:11.688Z,101182.13
2023-06-02T15:07:39.946Z,101186.38
2023-06-02T15:10:08.873Z,101180.69
2023-06-02T15:12:36.909Z,101182.99
2023-06-02T15:15:05.797Z,101186.46
2023-06-02T15:17:33.812Z,101185.02
2023-06-02T15:20:02.456Z,101175.39
2023-06-02T15:22:31.756Z,101173.68
2023-06-02T15:25:01.560Z,101175.89
2023-06-02T15:27:30.752Z,101177.65
2023-06-02T15:29:59.296Z,101180.87
2023-06-02T15:32:27.463Z,101183.73
2023-06-02T15:34:55.617Z,101184.83
2023-06-02T15:37:23.889Z,101180.97
2023-06-02T15:39:53.620Z,101180.45
2023-06-02T15:42:21.695Z,101176.52
2023-06-02T15:44:49.987Z,101174.48
2023-06-02T15:47:18.244Z,101180.45
2023-06-02T15:49:46.355Z,101170.52
2023-06-02T15:52:14.556Z,101176.06
2023-06-02T15:54:42.662Z,101169.81
2023-06-02T15:57:11.034Z,101171.27
2023-06-02T15:59:43.441Z,101173.38
2023-06-02T16:02:11.606Z,101172.06
2023-06-02T16:04:40.850Z,101170.74
2023-06-02T16:07:08.923Z,101164.59
2023-06-02T16:09:37.163Z,101166.27
2023-06-02T16:12:05.970Z,101164.01
2023-06-02T16:14:34.112Z,101156.15
2023-06-02T16:17:02.886Z,101159.60
2023-06-02T16:19:32.111Z,101167.12
2023-06-02T16:22:00.368Z,101163.52
2023-06-02T16:24:28.643Z,101161.05
2023-06-02T16:26:56.812Z,101164.02
2023-06-02T16:29:25.090Z,101165.20
2023-06-02T16:31:53.588Z,101166.19
2023-06-02T16:34:21.730Z,101168.55
2023-06-02T16:36:51.533Z,101172.20
2023-06-02T16:39:19.921Z,101179.48
2023-06-02T16:41:48.063Z,101180.92
2023-06-02T16:44:16.970Z,101179.52
2023-06-02T16:46:45.344Z,101179.27
2023-06-02T16:49:14.950Z,101181.23
2023-06-02T16:51:43.081Z,101184.21
2023-06-02T16:54:13.069Z,101183.95
2023-06-02T16:56:41.653Z,101180.67
2023-06-02T16:59:10.003Z,101177.81
2023-06-02T17:01:38.273Z,101183.55
2023-06-02T17:04:06.825Z,101191.47
2023-06-02T17:06:36.768Z,101188.02
2023-06-02T17:09:05.404Z,101189.89
2023-06-02T17:11:33.599Z,101191.57
2023-06-02T17:14:01.783Z,101190.89
2023-06-02T17:16:30.217Z,101190.23
2023-06-02T17:18:58.949Z,101189.09
2023-06-02T17:21:27.956Z,101190.81
2023-06-02T17:23:57.395Z,101189.63
2023-06-02T17:26:26.567Z,101189.90
2023-06-02T17:28:54.731Z,101192.09
2023-06-02T17:31:23.071Z,101188.83
2023-06-02T17:33:51.539Z,101190.20
2023-06-02T17:36:19.706Z,101188.16
2023-06-02T17:38:47.864Z,101186.09
2023-06-02T17:41:17.353Z,101186.45
2023-06-02T17:43:47.237Z,101184.70
2023-06-02T17:46:19.474Z,101181.48
2023-06-02T17:48:47.811Z,101177.60
2023-06-02T17:51:16.383Z,101174.06
2023-06-02T17:53:44.645Z,101180.34
2023-06-02T17:56:13.030Z,101184.45
2023-06-02T17:58:41.738Z,101185.11
2023-06-02T18:01:11.318Z,101186.30
2023-06-02T18:03:40.041Z,101192.31
2023-06-02T18:06:08.508Z,101198.18
2023-06-02T18:08:37.497Z,101202.52
2023-06-02T18:11:06.164Z,101206.95
2023-06-02T18:13:34.777Z,101214.84
2023-06-02T18:16:02.887Z,101219.23
2023-06-02T18:18:31.188Z,101220.16
2023-06-02T18:20:59.576Z,101227.55
2023-06-02T18:23:28.284Z,101227.75
2023-06-02T18:25:58.387Z,101233.10
2023-06-02T18:28:26.781Z,101234.06
2023-06-02T18:30:54.891Z,101234.05
2023-06-02T18:33:22.965Z,101236.73
2023-06-02T18:35:51.282Z,101235.71
2023-06-02T18:38:19.377Z,101235.73
2023-06-02T18:40:47.488Z,101236.15
2023-06-02T18:43:15.707Z,101237.86
2023-06-02T18:45:43.863Z,101241.58
2023-06-02T18:48:12.742Z,101242.02
2023-06-02T18:50:41.602Z,101245.43
2023-06-02T18:53:11.971Z,101246.65
2023-06-02T18:55:40.116Z,101245.61
2023-06-02T18:58:08.888Z,101245.10
2023-06-02T19:00:40.457Z,101248.05
2023-06-02T19:03:08.939Z,101247.05
2023-06-02T19:05:37.523Z,101244.29
2023-06-02T19:08:06.657Z,101248.94
2023-06-02T19:10:34.643Z,101251.33
2023-06-02T19:13:03.017Z,101251.92
2023-06-02T19:15:31.348Z,101250.85
2023-06-02T19:18:01.806Z,101246.89
2023-06-02T19:20:31.505Z,101252.36
2023-06-02T19:22:59.953Z,101253.23
2023-06-02T19:25:28.715Z,101253.23
2023-06-02T19:27:57.105Z,101255.72
2023-06-02T19:30:25.995Z,101255.33
2023-06-02T19:32:54.237Z,101256.11
2023-06-02T19:35:23.191Z,101255.79
2023-06-02T19:37:51.433Z,101253.80
2023-06-02T19:40:19.693Z,101257.14
2023-06-02T19:42:47.922Z,101255.48
2023-06-02T19:45:16.105Z,101260.20
2023-06-02T19:47:44.326Z,101264.77
2023-06-02T19:50:14.294Z,101267.80
2023-06-02T19:52:42.815Z,101267.98
2023-06-02T19:55:11.624Z,101269.35
2023-06-02T19:57:41.315Z,101267.77
2023-06-02T20:00:10.949Z,101267.70
2023-06-02T20:02:39.514Z,101269.04
2023-06-02T20:05:12.218Z,101267.18
2023-06-02T20:07:41.926Z,101269.11
2023-06-02T20:10:12.247Z,101266.41
2023-06-02T20:12:40.605Z,101265.79
2023-06-02T20:15:09.678Z,101269.10
2023-06-02T20:17:37.799Z,101269.25
2023-06-02T20:20:07.206Z,101268.88
2023-06-02T20:22:35.596Z,101265.64
2023-06-02T20:25:04.187Z,101267.45
2023-06-02T20:27:32.258Z,101268.92
2023-06-02T20:30:02.048Z,101266.29
2023-06-02T20:32:31.111Z,101265.73
2023-06-02T20:34:59.289Z,101265.55
2023-06-02T20:37:27.472Z,101259.68
2023-06-02T20:39:55.752Z,101258.25
2023-06-02T20:42:23.923Z,101258.48
2023-06-02T20:44:52.277Z,101254.86
2023-06-02T20:47:20.905Z,101250.65
2023-06-02T20:49:49.013Z,101252.22
2023-06-02T20:52:17.128Z,101254.64
2023-06-02T20:54:45.261Z,101255.27
2023-06-02T20:57:13.362Z,101255.71
2023-06-02T20:59:41.761Z,101255.71
2023-06-02T21:02:11.219Z,101256.25
2023-06-02T21:04:40.296Z,101250.70
2023-06-02T21:07:08.437Z,101247.99
2023-06-02T21:09:38.127Z,101246.81
2023-06-02T21:12:06.851Z,101248.31
2023-06-02T21:14:35.062Z,101247.98
2023-06-02T21:17:03.379Z,101249.63
2023-06-02T21:19:31.712Z,101252.33
2023-06-02T21:21:59.922Z,101245.89
2023-06-02T21:24:28.340Z,101241.30
2023-06-02T21:26:57.716Z,101240.69
2023-06-02T21:29:25.850Z,101240.63
2023-06-02T21:31:53.993Z,101239.89
2023-06-02T21:34:22.042Z,101233.80
2023-06-02T21:36:50.337Z,101233.33
2023-06-02T21:39:18.478Z,101228.27
2023-06-02T21:41:48.984Z,101222.15
2023-06-02T21:44:17.743Z,101220.00
2023-06-02T21:46:46.006Z,101216.46
2023-06-02T21:49:15.701Z,101213.96
2023-06-02T21:51:45.343Z,101218.14
2023-06-02T21:54:13.438Z,101220.71
2023-06-02T21:56:41.654Z,101221.12
2023-06-02T21:59:09.875Z,101220.33
2023-06-02T22:01:37.989Z,101217.60
2023-06-02T22:04:06.220Z,101219.52
2023-06-02T22:06:34.390Z,101215.08
2023-06-02T22:09:02.845Z,101214.15
2023-06-02T22:11:31.128Z,101214.73
2023-06-02T22:13:59.336Z,101216.59
2023-06-02T22:16:27.633Z,101221.23
2023-06-02T22:18:55.765Z,101219.77
2023-06-02T22:21:41.701Z,101218.50
2023-06-02T22:24:18.776Z,101214.84
2023-06-02T22:26:55.168Z,101212.07
2023-06-02T22:29:48.180Z,101209.29
2023-06-02T22:32:16.317Z,101210.57
2023-06-02T22:34:44.406Z,101211.52
2023-06-02T22:37:12.514Z,101213.06
2023-06-02T22:39:41.367Z,101209.98
2023-06-02T22:42:09.723Z,101210.60
2023-06-02T22:44:38.563Z,101217.83
2023-06-02T22:47:07.219Z,101218.71
2023-06-02T22:49:35.565Z,101216.11
2023-06-02T22:52:03.732Z,101217.84
2023-06-02T22:54:31.933Z,101218.81
2023-06-02T22:56:59.981Z,101220.44
2023-06-02T22:59:28.237Z,101224.92
2023-06-02T23:01:56.318Z,101218.76
2023-06-02T23:04:24.530Z,101218.59
2023-06-02T23:06:52.590Z,101216.59
2023-06-02T23:09:20.845Z,101213.67
2023-06-02T23:11:49.777Z,101214.46
2023-06-02T23:14:17.941Z,101215.09
2023-06-02T23:16:48.724Z,101219.65
2023-06-02T23:19:17.996Z,101217.58
2023-06-02T23:21:46.144Z,101219.40
2023-06-02T23:24:14.277Z,101221.41
2023-06-02T23:26:42.366Z,101222.73
2023-06-02T23:29:10.532Z,101225.88
2023-06-02T23:31:38.910Z,101225.33
2023-06-02T23:34:07.218Z,101225.16
2023-06-02T23:36:35.780Z,101226.76
2023-06-02T23:39:04.420Z,101228.70
2023-06-02T23:41:32.612Z,101228.08
2023-06-02T23:44:00.811Z,101223.46
2023-06-02T23:46:29.889Z,101226.09
2023-06-02T23:48:58.917Z,101232.39
2023-06-02T23:51:27.025Z,101230.54
2023-06-02T23:53:55.365Z,101230.88
2023-06-02T23:56:23.421Z,101228.15
2023-06-02T23:58:51.482Z,101227.55
